Terminal Aerodrome Forecast
Issued by NWS

Home | Current Version | Previous Version | Text Only | Print | Product List | Glossary On
Versions: 1 2 3 4 5 6 7 8 9 10 11 12 13 14 15 16 17 18 19
919
FTUS44 KLZK 282320
TAFLLQ
TAF
KLLQ 282320Z 2900/2924 17008G15KT P6SM VCTS SCT025 BKN050CB
     FM290500 17012G18KT P6SM SCT008 BKN015 OVC025
     FM291800 16014G24KT P6SM VCTS SCT015 BKN035CB PROB30 2918/2924
      1SM TSRA BR BKN025CB=

USA.gov is the U.S. government's official web portal to all federal, state and local government web resources and services.